createdAt,value
2019-01-05T00:01:43.990Z,22.23
2019-01-05T00:04:33.698Z,23.23
2019-01-05T00:07:19.222Z,22.77
2019-01-05T00:10:10.601Z,23.20
2019-01-05T00:12:53.511Z,23.50
2019-01-05T00:15:43.318Z,25.87
2019-01-05T00:18:30.313Z,23.20
2019-01-05T00:21:26.442Z,25.30
2019-01-05T00:24:16.537Z,24.00
2019-01-05T00:27:02.834Z,23.90
2019-01-05T00:29:41.457Z,23.77
2019-01-05T00:32:35.172Z,24.67
2019-01-05T00:35:21.586Z,22.97
2019-01-05T00:38:16.734Z,23.50
2019-01-05T00:41:03.941Z,23.60
2019-01-05T00:43:51.021Z,25.07
2019-01-05T00:46:39.141Z,24.27
2019-01-05T00:49:26.965Z,23.10
2019-01-05T00:52:13.562Z,25.20
2019-01-05T00:54:56.055Z,25.33
2019-01-05T00:57:49.849Z,23.43
2019-01-05T01:00:49.950Z,23.67
2019-01-05T01:03:43.109Z,24.63
2019-01-05T01:06:48.557Z,24.60
2019-01-05T01:09:50.521Z,23.97
2019-01-05T01:12:40.715Z,25.03
2019-01-05T01:15:26.389Z,23.37
2019-01-05T01:18:11.844Z,23.60
2019-01-05T01:21:02.428Z,24.50
2019-01-05T01:23:52.402Z,22.67
2019-01-05T01:26:33.847Z,22.77
2019-01-05T01:29:19.925Z,22.63
2019-01-05T01:32:16.173Z,23.63
2019-01-05T01:35:06.086Z,22.97
2019-01-05T01:38:18.961Z,22.97
2019-01-05T01:41:04.410Z,21.17
2019-01-05T01:43:51.779Z,22.43
2019-01-05T01:46:49.859Z,22.27
2019-01-05T01:49:40.597Z,24.60
2019-01-05T01:52:38.466Z,23.60
2019-01-05T01:55:38.801Z,20.70
2019-01-05T01:58:41.185Z,21.80
2019-01-05T02:01:29.816Z,22.43
2019-01-05T02:04:16.818Z,21.50
2019-01-05T02:07:03.967Z,21.70
2019-01-05T02:09:57.682Z,22.80
2019-01-05T02:12:54.042Z,21.10
2019-01-05T02:15:50.287Z,23.87
2019-01-05T02:18:57.355Z,20.60
2019-01-05T02:22:05.242Z,22.87
2019-01-05T02:25:09.621Z,21.43
2019-01-05T02:28:18.389Z,21.80
2019-01-05T02:31:22.353Z,21.27
2019-01-05T02:34:36.364Z,20.07
2019-01-05T02:37:36.310Z,20.60
2019-01-05T02:40:39.795Z,20.40
2019-01-05T02:43:32.486Z,21.37
2019-01-05T02:46:39.901Z,19.70
2019-01-05T02:49:42.719Z,19.80
2019-01-05T02:52:43.663Z,19.13
2019-01-05T02:55:47.430Z,19.40
2019-01-05T02:59:22.174Z,17.80
2019-01-05T03:02:26.289Z,17.30
2019-01-05T03:05:54.335Z,16.90
2019-01-05T03:09:00.579Z,16.00
2019-01-05T03:11:56.393Z,15.57
2019-01-05T03:15:04.302Z,15.47
2019-01-05T03:18:04.510Z,15.27
2019-01-05T03:21:10.466Z,13.87
2019-01-05T03:24:14.879Z,13.63
2019-01-05T03:27:29.795Z,13.47
2019-01-05T03:30:32.596Z,13.27
2019-01-05T03:33:50.073Z,12.27
2019-01-05T03:37:05.023Z,10.93
2019-01-05T03:40:15.761Z,11.33
2019-01-05T03:43:39.409Z,12.07
2019-01-05T03:46:51.087Z,11.83
2019-01-05T03:49:55.314Z,12.73
2019-01-05T03:52:53.593Z,10.87
2019-01-05T03:56:14.511Z,12.00
2019-01-05T03:59:31.153Z,11.00
2019-01-05T04:02:41.674Z,11.67
2019-01-05T04:06:02.599Z,10.47
2019-01-05T04:09:04.066Z,11.70
2019-01-05T04:15:35.253Z,12.23
2019-01-05T04:18:41.375Z,11.23
2019-01-05T04:21:47.242Z,11.57
2019-01-05T04:24:53.410Z,10.60
2019-01-05T04:27:59.525Z,11.67
2019-01-05T04:31:05.655Z,12.93
2019-01-05T04:37:17.995Z,10.37
2019-01-05T04:40:15.494Z,11.70
2019-01-05T04:43:21.358Z,10.30
2019-01-05T04:49:30.398Z,8.67
2019-01-05T04:52:36.282Z,9.27
2019-01-05T04:55:42.226Z,8.77
2019-01-05T04:58:48.392Z,9.33
2019-01-05T05:01:54.524Z,8.97
2019-01-05T05:04:54.473Z,9.10
2019-01-05T05:08:00.591Z,8.93
2019-01-05T05:11:06.718Z,8.80
2019-01-05T05:14:12.892Z,9.30
2019-01-05T05:17:18.778Z,8.77
2019-01-05T05:20:24.676Z,8.60
2019-01-05T05:26:41.655Z,9.50
2019-01-05T05:29:47.593Z,9.00
2019-01-05T05:32:53.466Z,9.23
2019-01-05T05:35:59.599Z,8.90
2019-01-05T05:39:05.501Z,9.17
2019-01-05T05:42:11.627Z,9.77
2019-01-05T05:45:17.591Z,10.10
2019-01-05T05:48:23.714Z,10.67
2019-01-05T05:51:29.579Z,10.43
2019-01-05T05:54:35.511Z,10.63
2019-01-05T05:57:41.729Z,10.50
2019-01-05T06:04:10.954Z,9.80
2019-01-05T06:07:16.806Z,9.80
2019-01-05T06:10:22.683Z,10.50
2019-01-05T06:13:28.558Z,10.77
2019-01-05T06:19:49.357Z,10.23
2019-01-05T06:22:55.472Z,9.93
2019-01-05T06:26:01.334Z,9.90
2019-01-05T06:29:07.202Z,10.10
2019-01-05T06:32:13.085Z,8.50
2019-01-05T06:35:19.217Z,9.87
2019-01-05T06:38:18.549Z,8.47
2019-01-05T06:41:24.690Z,8.57
2019-01-05T06:44:30.550Z,8.87
2019-01-05T06:47:36.447Z,8.60
2019-01-05T06:50:42.342Z,8.90
2019-01-05T06:53:48.441Z,8.27
2019-01-05T06:56:54.320Z,8.27
2019-01-05T07:00:00.211Z,8.63
2019-01-05T07:03:06.153Z,8.33
2019-01-05T07:06:12.263Z,8.33
2019-01-05T07:09:18.382Z,7.80
2019-01-05T07:12:24.277Z,7.70
2019-01-05T07:15:30.145Z,7.20
2019-01-05T07:18:36.027Z,7.30
2019-01-05T07:21:41.890Z,7.90
2019-01-05T07:24:48.024Z,7.70
2019-01-05T07:27:54.132Z,6.00
2019-01-05T07:30:59.998Z,6.90
2019-01-05T07:34:05.855Z,6.17
2019-01-05T07:37:11.991Z,7.37
2019-01-05T07:40:18.099Z,8.00
2019-01-05T07:43:23.957Z,7.03
2019-01-05T07:46:29.893Z,7.40
2019-01-05T07:49:35.742Z,5.93
2019-01-05T07:52:41.865Z,5.93
2019-01-05T07:55:47.718Z,6.07
2019-01-05T07:58:53.589Z,6.33
2019-01-05T08:01:59.702Z,5.87
2019-01-05T08:05:05.558Z,6.00
2019-01-05T08:08:11.692Z,6.30
2019-01-05T08:14:33.297Z,5.10
2019-01-05T08:17:39.173Z,4.97
2019-01-05T08:20:45.026Z,4.80
2019-01-05T08:23:50.893Z,4.90
2019-01-05T08:26:57.002Z,4.73
2019-01-05T08:30:03.325Z,5.17
2019-01-05T08:33:09.222Z,5.43
2019-01-05T08:39:33.787Z,5.30
2019-01-05T08:42:39.930Z,5.60
2019-01-05T08:45:45.797Z,5.27
2019-01-05T08:48:44.850Z,5.40
2019-01-05T08:51:50.970Z,5.50
2019-01-05T08:54:56.843Z,5.87
2019-01-05T08:58:02.714Z,6.80
2019-01-05T09:01:08.598Z,6.07
2019-01-05T09:04:11.766Z,6.70
2019-01-05T09:07:17.637Z,6.43
2019-01-05T09:10:23.751Z,7.07
2019-01-05T09:13:29.623Z,7.37
2019-01-05T09:16:35.505Z,8.00
2019-01-05T09:19:41.391Z,7.40
2019-01-05T09:25:50.978Z,8.37
2019-01-05T09:32:03.497Z,7.67
2019-01-05T09:35:09.370Z,7.60
2019-01-05T09:38:15.225Z,7.40
2019-01-05T09:41:21.337Z,6.73
2019-01-05T09:44:21.268Z,6.57
2019-01-05T09:50:34.945Z,6.53
2019-01-05T09:53:41.054Z,7.10
2019-01-05T09:56:46.934Z,7.20
2019-01-05T10:03:11.330Z,7.00
2019-01-05T10:06:17.193Z,7.80
2019-01-05T10:15:27.734Z,8.40
2019-01-05T10:18:23.114Z,7.10
2019-01-05T10:21:29.239Z,7.40
2019-01-05T10:24:29.163Z,8.23
2019-01-05T10:27:35.354Z,7.30
2019-01-05T10:33:31.325Z,7.80
2019-01-05T10:36:37.497Z,7.53
2019-01-05T10:39:43.366Z,7.10
2019-01-05T10:42:44.946Z,7.10
2019-01-05T10:45:49.428Z,6.80
2019-01-05T10:48:48.886Z,7.00
2019-01-05T10:51:53.981Z,6.97
2019-01-05T10:54:59.838Z,6.77
2019-01-05T10:58:05.725Z,5.90
2019-01-05T11:01:11.576Z,6.43
2019-01-05T11:07:26.694Z,6.50
2019-01-05T11:10:32.555Z,6.90
2019-01-05T11:13:38.435Z,6.87
2019-01-05T11:16:44.594Z,6.33
2019-01-05T11:19:47.742Z,7.87
2019-01-05T11:22:53.860Z,6.97
2019-01-05T11:25:59.725Z,6.90
2019-01-05T11:29:05.599Z,6.83
2019-01-05T11:32:11.502Z,6.23
2019-01-05T11:35:17.378Z,7.40
2019-01-05T11:38:23.247Z,7.27
2019-01-05T11:47:29.991Z,7.47
2019-01-05T11:50:36.101Z,7.50
2019-01-05T11:53:42.219Z,7.90
2019-01-05T11:56:48.091Z,8.53
2019-01-05T11:59:53.949Z,8.60
2019-01-05T12:02:53.935Z,8.27
2019-01-05T12:05:59.821Z,8.10
2019-01-05T12:09:07.946Z,7.20
2019-01-05T12:12:13.609Z,7.37
2019-01-05T12:15:19.466Z,8.43
2019-01-05T12:18:25.426Z,8.00
2019-01-05T12:21:31.313Z,9.57
2019-01-05T12:24:37.210Z,8.30
2019-01-05T12:27:43.087Z,8.70
2019-01-05T12:30:45.662Z,8.50
2019-01-05T12:33:51.795Z,8.60
2019-01-05T12:36:57.889Z,8.40
2019-01-05T12:39:57.694Z,8.03
2019-01-05T12:43:03.798Z,7.90
2019-01-05T12:46:09.699Z,9.30
2019-01-05T12:49:15.802Z,8.50
2019-01-05T12:52:21.932Z,7.37
2019-01-05T12:55:27.806Z,8.07
2019-01-05T12:58:33.676Z,8.10
2019-01-05T13:01:39.910Z,8.07
2019-01-05T13:04:46.023Z,8.43
2019-01-05T13:07:51.890Z,8.97
2019-01-05T13:14:24.806Z,9.10
2019-01-05T13:17:31.034Z,8.50
2019-01-05T13:20:36.889Z,8.90
2019-01-05T13:23:42.997Z,7.63
2019-01-05T13:26:48.867Z,8.33
2019-01-05T13:29:54.748Z,7.20
2019-01-05T13:33:00.923Z,8.50
2019-01-05T13:39:17.222Z,7.47
2019-01-05T13:42:23.339Z,7.10
2019-01-05T13:45:43.522Z,7.70
2019-01-05T13:48:37.058Z,8.87
2019-01-05T13:54:33.270Z,8.10
2019-01-05T13:57:22.145Z,8.00
2019-01-05T14:00:09.172Z,7.07
2019-01-05T14:02:56.535Z,7.57
2019-01-05T14:05:43.314Z,8.10
2019-01-05T14:08:30.340Z,8.40
2019-01-05T14:11:17.395Z,7.27
2019-01-05T14:14:04.482Z,8.00
2019-01-05T14:16:51.885Z,8.70
2019-01-05T14:19:39.022Z,6.97
2019-01-05T14:22:25.896Z,7.83
2019-01-05T14:25:12.918Z,7.43
2019-01-05T14:27:59.970Z,8.40
2019-01-05T14:30:46.818Z,8.00
2019-01-05T14:33:34.026Z,6.90
2019-01-05T14:36:21.058Z,8.20
2019-01-05T14:39:08.139Z,7.10
2019-01-05T14:41:54.930Z,7.43
2019-01-05T14:44:42.070Z,7.70
2019-01-05T14:47:28.930Z,7.27
2019-01-05T14:50:15.709Z,8.60
2019-01-05T14:53:02.993Z,8.00
2019-01-05T14:55:49.790Z,9.50
2019-01-05T14:58:36.851Z,7.10
2019-01-05T15:01:24.223Z,8.50
2019-01-05T15:04:11.016Z,7.30
2019-01-05T15:06:58.396Z,8.80
2019-01-05T15:09:45.459Z,8.47
2019-01-05T15:12:32.526Z,8.80
2019-01-05T15:15:19.318Z,7.63
2019-01-05T15:18:06.090Z,7.67
2019-01-05T15:20:52.879Z,6.90
2019-01-05T15:23:39.670Z,5.80
2019-01-05T15:26:21.161Z,6.53
2019-01-05T15:29:02.459Z,10.70
2019-01-05T15:31:49.486Z,7.17
2019-01-05T15:34:36.518Z,7.30
2019-01-05T15:37:23.579Z,7.50
2019-01-05T15:40:10.586Z,7.27
2019-01-05T15:42:57.672Z,7.13
2019-01-05T15:45:44.454Z,7.83
2019-01-05T15:48:31.237Z,8.30
2019-01-05T15:51:18.009Z,7.97
2019-01-05T15:54:05.315Z,7.63
2019-01-05T15:56:52.099Z,7.90
2019-01-05T15:59:38.874Z,7.10
2019-01-05T16:02:25.954Z,5.80
2019-01-05T16:05:05.386Z,5.63
2019-01-05T16:07:52.431Z,7.90
2019-01-05T16:10:39.203Z,7.53
2019-01-05T16:13:26.295Z,7.40
2019-01-05T16:16:13.355Z,7.27
2019-01-05T16:21:53.332Z,9.33
2019-01-05T16:27:46.118Z,9.20
2019-01-05T16:30:32.907Z,8.63
2019-01-05T16:33:19.931Z,9.43
2019-01-05T16:36:07.233Z,8.40
2019-01-05T16:38:55.556Z,9.10
2019-01-05T16:41:37.449Z,9.00
2019-01-05T16:44:24.222Z,12.93
2019-01-05T16:47:11.669Z,10.17
2019-01-05T16:49:58.712Z,10.30
2019-01-05T16:52:45.820Z,10.63
2019-01-05T16:55:32.926Z,11.20
2019-01-05T16:58:20.166Z,11.47
2019-01-05T17:01:07.009Z,10.97
2019-01-05T17:03:53.823Z,9.47
2019-01-05T17:06:40.597Z,10.60
2019-01-05T17:09:27.674Z,10.60
2019-01-05T17:12:14.707Z,10.70
2019-01-05T17:15:01.810Z,10.03
2019-01-05T17:17:49.113Z,10.07
2019-01-05T17:20:36.282Z,10.47
2019-01-05T17:23:23.070Z,9.87
2019-01-05T17:26:10.000Z,10.70
2019-01-05T17:28:57.263Z,10.30
2019-01-05T17:31:44.294Z,11.00
2019-01-05T17:34:31.718Z,10.10
2019-01-05T17:37:18.531Z,10.17
2019-01-05T17:40:05.348Z,10.93
2019-01-05T17:42:52.442Z,10.47
2019-01-05T17:45:39.466Z,10.47
2019-01-05T17:48:26.606Z,10.63
2019-01-05T17:51:13.618Z,10.30
2019-01-05T17:54:00.655Z,9.73
2019-01-05T17:56:47.686Z,14.43
2019-01-05T17:59:35.166Z,10.57
2019-01-05T18:02:22.482Z,10.80
2019-01-05T18:05:09.583Z,12.67
2019-01-05T18:07:56.646Z,13.30
2019-01-05T18:10:43.725Z,31.10
2019-01-05T18:13:30.840Z,14.40
2019-01-05T18:16:17.962Z,19.57
2019-01-05T18:19:03.738Z,27.33
2019-01-05T18:21:50.953Z,18.40
2019-01-05T18:24:34.826Z,13.40
2019-01-05T18:27:22.010Z,11.50
2019-01-05T18:30:09.326Z,9.90
2019-01-05T18:32:56.393Z,9.80
2019-01-05T18:35:44.861Z,11.60
2019-01-05T18:38:32.047Z,11.70
2019-01-05T18:41:19.423Z,11.10
2019-01-05T18:44:06.361Z,9.00
2019-01-05T18:46:53.145Z,10.20
2019-01-05T18:49:40.189Z,10.13
2019-01-05T18:52:27.308Z,10.97
2019-01-05T18:55:14.354Z,10.57
2019-01-05T18:58:01.430Z,10.40
2019-01-05T19:00:48.768Z,9.57
2019-01-05T19:03:28.867Z,10.47
2019-01-05T19:06:15.992Z,10.10
2019-01-05T19:09:03.194Z,9.53
2019-01-05T19:11:50.325Z,10.50
2019-01-05T19:14:37.676Z,10.53
2019-01-05T19:17:24.795Z,11.10
2019-01-05T19:20:11.851Z,9.17
2019-01-05T19:22:58.661Z,9.13
2019-01-05T19:25:45.782Z,9.40
2019-01-05T19:28:32.614Z,8.37
2019-01-05T19:31:20.042Z,9.20
2019-01-05T19:34:07.038Z,9.20
2019-01-05T19:36:53.844Z,9.13
2019-01-05T19:39:40.933Z,9.00
2019-01-05T19:42:20.497Z,7.57
2019-01-05T19:45:07.299Z,8.93
2019-01-05T19:47:54.081Z,9.67
2019-01-05T19:50:40.868Z,8.97
2019-01-05T19:53:27.919Z,12.00
2019-01-05T19:56:15.238Z,12.47
2019-01-05T19:59:02.278Z,9.30
2019-01-05T20:01:49.345Z,9.77
2019-01-05T20:04:36.115Z,9.80
2019-01-05T20:07:20.124Z,10.27
2019-01-05T20:10:07.429Z,10.70
2019-01-05T20:12:54.464Z,13.03
2019-01-05T20:15:41.506Z,12.30
2019-01-05T20:18:28.552Z,11.60
2019-01-05T20:21:05.677Z,11.97
2019-01-05T20:23:53.044Z,10.43
2019-01-05T20:26:40.146Z,10.73
2019-01-05T20:29:26.926Z,12.60
2019-01-05T20:32:13.951Z,12.03
2019-01-05T20:35:00.989Z,12.10
2019-01-05T20:37:47.764Z,11.80
2019-01-05T20:40:34.545Z,12.17
2019-01-05T20:43:40.437Z,10.60
2019-01-05T20:46:27.228Z,11.20
2019-01-05T20:49:14.605Z,12.70
2019-01-05T20:52:01.648Z,14.10
2019-01-05T20:54:48.409Z,13.50
2019-01-05T20:57:33.778Z,20.00
2019-01-05T21:00:20.922Z,15.43
2019-01-05T21:03:07.727Z,12.83
2019-01-05T21:05:54.740Z,11.70
2019-01-05T21:08:37.158Z,12.87
2019-01-05T21:11:24.478Z,12.17
2019-01-05T21:14:11.505Z,12.90
2019-01-05T21:16:58.280Z,12.83
2019-01-05T21:19:45.654Z,13.90
2019-01-05T21:22:32.711Z,13.40
2019-01-05T21:25:19.726Z,14.20
2019-01-05T21:28:06.815Z,13.70
2019-01-05T21:30:54.218Z,12.13
2019-01-05T21:33:41.269Z,14.40
2019-01-05T21:36:25.426Z,13.73
2019-01-05T21:39:12.492Z,14.57
2019-01-05T21:42:18.605Z,15.00
2019-01-05T21:45:05.953Z,14.70
2019-01-05T21:47:53.058Z,14.23
2019-01-05T21:50:39.845Z,12.27
2019-01-05T21:53:26.647Z,12.13
2019-01-05T21:56:05.296Z,11.87
2019-01-05T21:58:52.331Z,12.20
2019-01-05T22:01:39.465Z,11.40
2019-01-05T22:04:26.536Z,11.57
2019-01-05T22:07:13.349Z,12.80
2019-01-05T22:10:00.160Z,12.07
2019-01-05T22:12:46.933Z,12.40
2019-01-05T22:15:34.102Z,12.03
2019-01-05T22:18:21.206Z,11.47
2019-01-05T22:21:08.579Z,11.47
2019-01-05T22:23:55.615Z,12.47
2019-01-05T22:26:42.627Z,12.97
2019-01-05T22:29:29.662Z,12.23
2019-01-05T22:32:16.719Z,11.90
2019-01-05T22:35:03.774Z,12.60
2019-01-05T22:37:50.850Z,12.43
2019-01-05T22:40:37.958Z,11.60
2019-01-05T22:43:24.741Z,12.13
2019-01-05T22:46:11.502Z,11.73
2019-01-05T22:48:58.318Z,12.90
2019-01-05T22:51:45.100Z,12.33
2019-01-05T22:54:31.851Z,11.10
2019-01-05T22:57:18.619Z,13.20
2019-01-05T23:00:05.810Z,13.37
2019-01-05T23:02:41.994Z,14.50
2019-01-05T23:05:29.127Z,12.83
2019-01-05T23:08:15.917Z,12.63
2019-01-05T23:11:02.962Z,11.90
2019-01-05T23:13:49.986Z,11.00
2019-01-05T23:16:37.051Z,11.27
2019-01-05T23:19:24.079Z,10.67
2019-01-05T23:22:11.437Z,12.33
2019-01-05T23:24:59.105Z,11.70
2019-01-05T23:27:46.125Z,9.53
2019-01-05T23:30:32.921Z,10.00
2019-01-05T23:33:19.934Z,10.53
2019-01-05T23:36:06.759Z,10.07
2019-01-05T23:38:54.070Z,10.50
2019-01-05T23:41:41.163Z,10.17
2019-01-05T23:44:28.255Z,9.83
2019-01-05T23:47:04.008Z,8.50
2019-01-05T23:49:50.782Z,9.00
2019-01-05T23:52:37.856Z,8.80
2019-01-05T23:55:24.913Z,8.80
2019-01-05T23:58:11.954Z,8.23
